Time;durP1;ratioP1;P1;durP2;ratioP2;P2;SDS_P1;SDS_P2;PMS_P1;PMS_P2;Temp;Humidity;BMP_temperature;BMP_pressure;BME280_temperature;BME280_humidity;BME280_pressure;Samples;Min_cycle;Max_cycle;Signal;HPM_P1;HPM_P2
2022/03/16 00:00:08;;;;;;;346.50;164.15;;;;;;;1.22;67.02;95361.98;1696245;84;21023;-48
2022/03/16 00:02:38;;;;;;;;;;;;;;;1.21;66.95;95355.00;1695067;83;21534;-49
2022/03/16 00:05:06;;;;;;;318.55;144.22;;;;;;;1.10;67.20;95358.17;1693713;83;20147;-48
2022/03/16 00:07:34;;;;;;;344.45;164.75;;;;;;;0.96;67.48;95356.66;1691862;84;21099;-49
2022/03/16 00:10:01;;;;;;;360.15;176.95;;;;;;;0.86;68.00;95354.64;1694357;83;21077;-48
2022/03/16 00:12:29;;;;;;;299.73;143.32;;;;;;;0.89;68.22;95358.52;1688795;84;20991;-50
2022/03/16 00:14:57;;;;;;;327.80;154.80;;;;;;;0.86;68.32;95353.84;1698654;84;21145;-48
2022/03/16 00:17:24;;;;;;;331.30;151.47;;;;;;;0.86;68.76;95347.86;1694535;83;21519;-49
2022/03/16 00:19:51;;;;;;;287.80;140.85;;;;;;;0.86;68.73;95346.52;1692071;84;21015;-50
2022/03/16 00:22:19;;;;;;;312.50;147.50;;;;;;;0.83;68.70;95345.91;1689917;84;21033;-49
2022/03/16 00:24:46;;;;;;;293.58;142.87;;;;;;;0.79;68.86;95335.58;1694051;84;21049;-48
2022/03/16 00:27:13;;;;;;;313.35;145.87;;;;;;;0.83;68.95;95328.30;1691625;84;21970;-49
2022/03/16 00:29:41;;;;;;;308.98;150.65;;;;;;;0.92;68.86;95322.00;1687415;84;21431;-49
2022/03/16 00:32:09;;;;;;;328.23;153.53;;;;;;;0.99;68.74;95316.64;1693728;83;20979;-48
2022/03/16 00:34:36;;;;;;;325.87;158.75;;;;;;;1.11;68.76;95316.38;1692028;84;21011;-49
2022/03/16 00:37:04;;;;;;;320.73;150.57;;;;;;;1.25;68.54;95313.80;1691421;84;21075;-49
2022/03/16 00:39:34;;;;;;;330.52;158.65;;;;;;;1.37;68.15;95314.89;1683519;84;21297;-49
2022/03/16 00:42:03;;;;;;;330.05;158.03;;;;;;;1.44;67.75;95299.23;1694660;83;21058;-48
2022/03/16 00:44:34;;;;;;;324.65;157.07;;;;;;;1.45;67.58;95300.79;1698538;84;20971;-48
2022/03/16 00:47:01;;;;;;;313.70;151.27;;;;;;;1.49;67.55;95287.47;1661120;84;20990;-49
2022/03/16 00:49:29;;;;;;;327.65;153.27;;;;;;;1.55;67.18;95279.77;1690780;84;21458;-49
2022/03/16 00:51:56;;;;;;;325.27;160.03;;;;;;;1.55;67.10;95279.21;1689421;84;21214;-49
2022/03/16 00:54:23;;;;;;;321.15;153.47;;;;;;;1.55;67.14;95275.14;1697234;84;20968;-51
2022/03/16 00:56:52;;;;;;;337.82;155.90;;;;;;;1.57;66.94;95274.75;1693770;84;20965;-48
2022/03/16 00:59:20;;;;;;;333.43;156.93;;;;;;;1.56;66.66;95260.44;1692779;83;21007;-49
2022/03/16 01:01:47;;;;;;;321.15;154.15;;;;;;;1.53;66.71;95250.31;1698231;83;21078;-48
2022/03/16 01:04:14;;;;;;;290.92;139.90;;;;;;;1.50;66.69;95248.36;1699066;84;21381;-49
2022/03/16 01:06:42;;;;;;;285.40;136.70;;;;;;;1.41;66.92;95249.84;1698584;83;21192;-49
2022/03/16 01:09:11;;;;;;;285.93;138.55;;;;;;;1.32;67.07;95242.63;1693598;83;20963;-49
2022/03/16 01:11:38;;;;;;;276.00;130.22;;;;;;;1.20;67.23;95236.94;1692074;84;21499;-49
2022/03/16 01:14:06;;;;;;;279.10;126.95;;;;;;;1.12;67.51;95244.02;1693156;83;21498;-49
2022/03/16 01:16:36;;;;;;;314.65;149.02;;;;;;;1.01;67.81;95243.94;1689575;84;21502;-50
2022/03/16 01:19:05;;;;;;;299.07;145.53;;;;;;;0.92;68.05;95228.56;1690034;84;21042;-50
2022/03/16 01:21:33;;;;;;;284.45;141.43;;;;;;;0.94;68.49;95228.20;1686456;84;21041;-50
2022/03/16 01:24:04;;;;;;;312.30;152.00;;;;;;;0.98;68.52;95236.53;1698161;84;20998;-49
2022/03/16 01:26:31;;;;;;;298.65;145.80;;;;;;;0.95;68.45;95224.34;1694590;84;20971;-48
2022/03/16 01:28:58;;;;;;;291.90;142.47;;;;;;;0.87;68.65;95218.08;1688179;84;21278;-50
2022/03/16 01:31:26;;;;;;;278.85;138.00;;;;;;;0.83;68.71;95215.13;1692701;83;21081;-50
2022/03/16 01:33:53;;;;;;;269.98;131.82;;;;;;;0.84;68.90;95209.36;1693739;84;21013;-49
2022/03/16 01:36:21;;;;;;;289.12;140.12;;;;;;;0.84;68.92;95206.65;1694036;84;20960;-49
2022/03/16 01:38:48;;;;;;;265.98;127.55;;;;;;;0.82;68.96;95202.75;1692130;83;20981;-49
2022/03/16 01:41:16;;;;;;;269.50;132.35;;;;;;;0.81;69.10;95189.77;1697729;84;21850;-49
2022/03/16 01:43:44;;;;;;;271.95;136.40;;;;;;;0.82;69.09;95192.70;1684229;84;21103;-49
2022/03/16 01:46:11;;;;;;;281.52;136.25;;;;;;;0.90;69.21;95207.84;1694008;84;20963;-49
2022/03/16 01:48:38;;;;;;;251.15;124.87;;;;;;;0.95;69.11;95203.44;1695294;84;21070;-49
2022/03/16 01:51:06;;;;;;;253.47;122.40;;;;;;;1.01;68.81;95201.16;1695463;84;21513;-49
2022/03/16 01:53:33;;;;;;;241.40;117.82;;;;;;;0.93;68.75;95207.09;1698159;83;22040;-49
2022/03/16 01:56:01;;;;;;;246.13;116.00;;;;;;;0.85;69.00;95209.55;1690472;83;21712;-49
2022/03/16 01:58:29;;;;;;;254.20;116.67;;;;;;;0.79;69.25;95215.09;1688497;84;20964;-49
2022/03/16 02:00:58;;;;;;;250.70;122.02;;;;;;;0.75;69.38;95218.35;1679500;84;21231;-48
2022/03/16 02:03:26;;;;;;;289.20;129.97;;;;;;;0.77;69.51;95215.28;1692941;84;21035;-50
2022/03/16 02:05:55;;;;;;;268.15;123.50;;;;;;;0.80;69.84;95214.53;1695896;83;21007;-51
2022/03/16 02:08:24;;;;;;;275.93;131.65;;;;;;;0.83;69.42;95219.98;1691520;84;21564;-48
2022/03/16 02:10:52;;;;;;;213.97;106.60;;;;;;;0.76;69.53;95213.73;1700297;84;21050;-49
2022/03/16 02:13:19;;;;;;;256.60;121.70;;;;;;;0.67;69.71;95213.24;1692716;84;20977;-48
2022/03/16 02:15:47;;;;;;;232.05;113.60;;;;;;;0.55;69.83;95227.83;1693427;84;21052;-49
2022/03/16 02:18:15;;;;;;;249.32;122.42;;;;;;;0.52;70.24;95232.64;1690379;83;21145;-49
2022/03/16 02:20:50;;;;;;;254.97;122.72;;;;;;;0.48;70.19;95224.27;1693708;84;21112;-48
2022/03/16 02:23:18;;;;;;;236.47;120.33;;;;;;;0.47;70.37;95207.27;1686894;83;21052;-49
2022/03/16 02:25:54;;;;;;;252.68;124.47;;;;;;;0.54;70.68;95192.44;1690068;83;21092;-48
2022/03/16 02:28:24;;;;;;;249.27;124.55;;;;;;;0.63;70.39;95178.01;1687408;84;21628;-49
2022/03/16 02:30:52;;;;;;;255.57;120.02;;;;;;;0.69;70.33;95158.94;1686470;83;21329;-49
2022/03/16 02:33:21;;;;;;;252.45;123.20;;;;;;;0.78;70.15;95154.56;1689705;84;21179;-50
2022/03/16 02:35:48;;;;;;;242.65;116.35;;;;;;;0.77;70.08;95145.65;1689966;84;21114;-48
2022/03/16 02:38:16;;;;;;;239.78;119.15;;;;;;;0.76;69.96;95157.63;1694473;84;21565;-50
2022/03/16 02:40:43;;;;;;;228.73;109.05;;;;;;;0.77;70.19;95172.72;1688469;84;20957;-48
2022/03/16 02:43:11;;;;;;;351.67;155.48;;;;;;;0.87;69.95;95167.98;1693803;83;21213;-49
2022/03/16 02:45:39;;;;;;;317.02;140.77;;;;;;;0.99;69.45;95159.55;1695527;83;20964;-49
2022/03/16 02:48:06;;;;;;;259.55;125.18;;;;;;;1.02;68.93;95137.15;1698155;83;21053;-49
2022/03/16 02:50:34;;;;;;;277.00;132.93;;;;;;;0.93;68.90;95124.50;1697791;83;21102;-49
2022/03/16 02:53:01;;;;;;;296.63;137.82;;;;;;;0.88;69.18;95120.80;1696273;84;21561;-49
2022/03/16 02:55:30;;;;;;;258.95;124.53;;;;;;;0.94;69.41;95138.23;1693992;84;21129;-49
2022/03/16 02:57:58;;;;;;;232.43;113.80;;;;;;;1.05;69.11;95139.09;1691841;83;21059;-49
2022/03/16 03:00:26;;;;;;;264.40;127.92;;;;;;;0.98;68.57;95136.33;1693070;84;21071;-49
2022/03/16 03:02:54;;;;;;;268.45;132.20;;;;;;;0.75;68.67;95127.66;1692053;83;21494;-49
2022/03/16 03:05:22;;;;;;;348.07;159.57;;;;;;;0.58;69.14;95114.75;1689714;84;21014;-49
2022/03/16 03:07:49;;;;;;;282.98;135.68;;;;;;;0.57;69.76;95109.14;1698229;84;21131;-50
2022/03/16 03:10:17;;;;;;;249.85;122.00;;;;;;;0.57;69.58;95098.31;1687125;84;21065;-50
2022/03/16 03:12:46;;;;;;;239.70;118.10;;;;;;;0.48;69.67;95097.87;1686925;83;21010;-49
2022/03/16 03:15:14;;;;;;;247.80;121.45;;;;;;;0.46;70.30;95096.12;1698686;83;21027;-50
2022/03/16 03:17:42;;;;;;;267.80;126.45;;;;;;;0.61;70.35;95086.17;1696181;84;21471;-48
2022/03/16 03:20:11;;;;;;;252.68;126.02;;;;;;;0.71;70.04;95071.36;1693920;84;21733;-49
2022/03/16 03:22:39;;;;;;;241.25;116.73;;;;;;;0.81;70.00;95072.58;1692017;83;20961;-48
2022/03/16 03:25:12;;;;;;;250.35;121.20;;;;;;;0.94;69.77;95096.26;1702493;83;21021;-49
2022/03/16 03:27:40;;;;;;;249.93;126.40;;;;;;;1.04;69.48;95100.19;1693302;83;20983;-49
2022/03/16 03:30:09;;;;;;;285.98;138.35;;;;;;;1.05;69.04;95105.23;1683582;84;21034;-48
2022/03/16 03:32:36;;;;;;;332.00;154.68;;;;;;;1.05;69.13;95106.59;1693036;83;21839;-48
2022/03/16 03:35:05;;;;;;;306.95;151.45;;;;;;;1.07;69.10;95104.28;1694284;83;20975;-48
2022/03/16 03:37:33;;;;;;;306.90;150.45;;;;;;;1.10;68.84;95091.33;1696633;84;21002;-48
2022/03/16 03:40:01;;;;;;;278.67;138.35;;;;;;;1.06;68.45;95087.83;1698335;84;20976;-49
2022/03/16 03:42:28;;;;;;;245.20;123.50;;;;;;;0.97;68.42;95087.38;1704110;84;21030;-47
2022/03/16 03:44:56;;;;;;;203.92;102.50;;;;;;;0.89;68.59;95092.55;1697743;84;21248;-49
2022/03/16 03:47:23;;;;;;;191.70;95.15;;;;;;;0.84;68.72;95087.50;1694349;84;20975;-49
2022/03/16 03:49:52;;;;;;;207.12;106.95;;;;;;;0.79;68.97;95079.71;1691259;84;21026;-49
2022/03/16 03:52:19;;;;;;;208.43;106.63;;;;;;;0.83;69.39;95073.77;1694729;83;21019;-48
2022/03/16 03:54:47;;;;;;;248.28;123.40;;;;;;;0.92;69.60;95078.85;1671818;84;21595;-50
2022/03/16 03:57:14;;;;;;;234.07;120.08;;;;;;;1.04;69.27;95075.81;1688305;84;21163;-49
2022/03/16 03:59:41;;;;;;;207.75;101.65;;;;;;;1.13;68.96;95079.73;1698071;84;21024;-49
2022/03/16 04:02:10;;;;;;;162.53;85.07;;;;;;;1.16;68.44;95080.33;1687776;84;20985;-49
2022/03/16 04:04:38;;;;;;;171.55;84.75;;;;;;;1.11;68.20;95071.80;1695707;83;21023;-49
2022/03/16 04:07:05;;;;;;;184.75;94.40;;;;;;;0.97;68.32;95072.48;1689919;84;20978;-52
2022/03/16 04:09:33;;;;;;;183.75;96.55;;;;;;;0.86;68.52;95071.66;1694739;83;22044;-50
2022/03/16 04:12:01;;;;;;;177.32;92.05;;;;;;;0.76;68.86;95072.94;1693390;84;21609;-51
2022/03/16 04:14:29;;;;;;;185.45;95.22;;;;;;;0.72;69.06;95070.77;1695410;84;21425;-50
2022/03/16 04:16:56;;;;;;;202.95;103.42;;;;;;;0.72;69.04;95086.45;1692152;84;21123;-49
2022/03/16 04:19:23;;;;;;;204.25;101.80;;;;;;;0.70;69.26;95079.28;1703790;83;20955;-49
2022/03/16 04:21:51;;;;;;;219.28;108.65;;;;;;;0.72;69.30;95091.86;1701030;83;21275;-50
2022/03/16 04:24:19;;;;;;;238.18;121.35;;;;;;;0.61;69.27;95085.58;1694875;83;21520;-48
2022/03/16 04:26:46;;;;;;;238.22;120.57;;;;;;;0.46;69.66;95081.80;1689917;84;21010;-49
2022/03/16 04:29:13;;;;;;;214.82;106.35;;;;;;;0.38;69.94;95079.60;1693182;83;21231;-50
2022/03/16 04:31:41;;;;;;;183.87;90.40;;;;;;;0.35;70.25;95081.70;1694148;84;21136;-49
2022/03/16 04:34:08;;;;;;;186.65;91.78;;;;;;;0.29;70.26;95073.75;1693328;84;21327;-58
2022/03/16 04:36:35;;;;;;;209.65;102.60;;;;;;;0.20;70.62;95077.32;1688342;84;21140;-50
2022/03/16 04:39:03;;;;;;;217.22;106.35;;;;;;;0.25;70.95;95073.50;1689027;83;20980;-49
2022/03/16 04:41:31;;;;;;;219.03;110.32;;;;;;;0.36;70.89;95073.80;1686490;83;20971;-52
2022/03/16 04:43:59;;;;;;;219.03;111.97;;;;;;;0.45;70.60;95078.30;1688344;84;21060;-49
2022/03/16 04:46:26;;;;;;;242.15;120.15;;;;;;;0.48;70.63;95076.22;1694321;83;21789;-51
2022/03/16 04:48:53;;;;;;;221.72;112.57;;;;;;;0.57;70.55;95071.25;1688032;84;21099;-51
2022/03/16 04:51:21;;;;;;;229.03;117.97;;;;;;;0.63;70.22;95072.44;1691921;83;21013;-49
2022/03/16 04:53:48;;;;;;;238.60;118.47;;;;;;;0.66;70.31;95069.01;1690388;84;21025;-49
2022/03/16 04:56:16;;;;;;;230.90;117.42;;;;;;;0.78;70.10;95059.80;1699333;83;21031;-50
2022/03/16 04:58:43;;;;;;;231.35;119.17;;;;;;;0.80;69.68;95063.66;1698876;83;21246;-49
2022/03/16 05:01:10;;;;;;;231.80;121.42;;;;;;;0.73;69.57;95071.75;1695371;83;21133;-50
2022/03/16 05:03:38;;;;;;;228.42;121.65;;;;;;;0.64;69.65;95077.30;1659394;83;21101;-50
2022/03/16 05:06:06;;;;;;;209.25;111.85;;;;;;;0.56;69.97;95061.58;1689591;84;21067;-51
2022/03/16 05:08:35;;;;;;;206.63;112.55;;;;;;;0.61;70.24;95073.98;1689557;84;20964;-49
2022/03/16 05:11:03;;;;;;;203.22;104.92;;;;;;;0.70;70.26;95064.39;1689208;84;21153;-50
2022/03/16 05:13:30;;;;;;;186.65;99.13;;;;;;;0.83;70.27;95054.81;1693446;83;20959;-50
2022/03/16 05:15:57;;;;;;;206.95;103.42;;;;;;;1.02;69.91;95053.75;1696167;84;21002;-50
2022/03/16 05:18:26;;;;;;;209.20;108.47;;;;;;;1.13;69.45;95054.00;1699816;83;20967;-49
2022/03/16 05:20:54;;;;;;;205.40;108.40;;;;;;;1.12;68.85;95048.97;1692799;83;21462;-50
2022/03/16 05:23:21;;;;;;;213.52;112.00;;;;;;;1.12;68.97;95055.16;1692962;84;21265;-48
2022/03/16 05:25:48;;;;;;;207.80;107.25;;;;;;;1.16;68.87;95053.23;1693163;83;21058;-51
2022/03/16 05:28:16;;;;;;;197.90;106.87;;;;;;;1.16;68.64;95053.83;1683961;84;21451;-49
2022/03/16 05:30:45;;;;;;;198.80;105.72;;;;;;;1.16;68.95;95054.59;1697112;83;20990;-49
2022/03/16 05:33:13;;;;;;;220.12;115.72;;;;;;;1.24;68.69;95048.06;1693018;84;20961;-49
2022/03/16 05:35:44;;;;;;;215.87;114.28;;;;;;;1.23;68.56;95053.28;1698871;84;21240;-49
2022/03/16 05:38:12;;;;;;;232.50;119.57;;;;;;;1.19;68.58;95057.92;1691730;83;21015;-50
2022/03/16 05:40:40;;;;;;;229.18;128.80;;;;;;;1.25;68.93;95057.74;1690082;83;21037;-49
2022/03/16 05:43:10;;;;;;;280.18;138.45;;;;;;;1.33;68.63;95048.48;1696508;83;21495;-50
2022/03/16 05:45:38;;;;;;;370.90;166.90;;;;;;;1.38;68.87;95046.78;1695568;83;20970;-51
2022/03/16 05:48:05;;;;;;;311.57;147.32;;;;;;;1.45;68.47;95049.50;1685580;83;21149;-50
2022/03/16 05:50:33;;;;;;;226.20;110.90;;;;;;;1.40;68.47;95045.81;1694717;84;21391;-49
2022/03/16 05:53:01;;;;;;;218.22;112.83;;;;;;;1.46;68.31;95050.27;1692515;83;21428;-49
2022/03/16 05:55:28;;;;;;;230.37;122.20;;;;;;;1.43;68.08;95044.25;1694250;84;21581;-51
2022/03/16 05:57:55;;;;;;;184.22;104.55;;;;;;;1.36;68.20;95043.64;1694981;84;21742;-50
2022/03/16 06:00:23;;;;;;;244.00;120.92;;;;;;;1.30;68.21;95045.17;1691599;84;21240;-50
2022/03/16 06:02:51;;;;;;;218.20;116.10;;;;;;;1.29;68.42;95047.69;1690272;84;21477;-50
2022/03/16 06:05:19;;;;;;;242.47;124.22;;;;;;;1.33;68.38;95037.64;1691027;84;21092;-50
2022/03/16 06:07:46;;;;;;;250.72;131.52;;;;;;;1.34;68.42;95040.54;1697840;84;21054;-49
2022/03/16 06:10:17;;;;;;;254.03;135.25;;;;;;;1.31;68.40;95043.26;1691281;83;21042;-50
2022/03/16 06:12:57;;;;;;;248.38;133.07;;;;;;;1.30;68.75;95053.30;1689874;84;21002;-53
2022/03/16 06:15:28;;;;;;;250.70;140.60;;;;;;;1.35;68.79;95048.87;1684762;84;21051;-55
2022/03/16 06:17:56;;;;;;;250.07;141.75;;;;;;;1.52;68.71;95052.23;1694574;84;21062;-51
2022/03/16 06:20:25;;;;;;;222.00;128.82;;;;;;;1.69;68.19;95047.44;1692131;84;21037;-51
2022/03/16 06:22:53;;;;;;;226.80;128.62;;;;;;;1.79;67.81;95044.00;1693690;83;21045;-52
2022/03/16 06:25:20;;;;;;;216.90;121.92;;;;;;;1.90;67.75;95042.06;1704301;82;21110;-49
2022/03/16 06:27:48;;;;;;;218.12;117.62;;;;;;;2.05;67.31;95046.36;1699697;82;20982;-50
2022/03/16 06:30:16;;;;;;;217.95;118.95;;;;;;;2.19;67.07;95036.33;1699947;82;21100;-51
2022/03/16 06:32:45;;;;;;;233.07;127.27;;;;;;;2.29;66.79;95034.78;1693783;84;21039;-52
2022/03/16 06:35:12;;;;;;;219.15;123.85;;;;;;;2.37;66.62;95023.53;1683548;84;20952;-53
2022/03/16 06:37:40;;;;;;;223.72;126.65;;;;;;;2.48;66.39;95023.53;1684472;84;21139;-51
2022/03/16 06:40:10;;;;;;;225.43;121.90;;;;;;;2.62;66.22;95030.29;1666686;85;21082;-51
2022/03/16 06:42:51;;;;;;;200.95;115.88;;;;;;;2.75;65.62;95041.74;1656564;85;21024;-51
2022/03/16 06:45:19;;;;;;;205.43;117.10;;;;;;;2.82;65.27;95035.50;1659607;85;20980;-54
2022/03/16 06:47:47;;;;;;;187.35;103.10;;;;;;;2.78;64.71;95041.52;1647244;85;21040;-51
2022/03/16 06:50:14;;;;;;;206.87;112.62;;;;;;;2.65;64.72;95036.33;1655904;85;21248;-54
2022/03/16 06:52:42;;;;;;;228.47;132.20;;;;;;;2.48;64.89;95039.22;1655336;85;21055;-52
2022/03/16 06:55:09;;;;;;;292.45;152.17;;;;;;;2.32;65.18;95034.00;1659805;85;21101;-52
2022/03/16 06:57:37;;;;;;;273.73;147.85;;;;;;;2.22;65.48;95048.33;1644507;84;21038;-52
2022/03/16 07:00:08;;;;;;;313.30;156.97;;;;;;;2.22;65.72;95045.05;1654425;84;21151;-51
2022/03/16 07:02:57;;;;;;;260.82;139.03;;;;;;;2.25;65.77;95046.19;1655306;85;21157;-50
2022/03/16 07:05:37;;;;;;;216.65;113.57;;;;;;;2.28;65.51;95041.34;1655690;85;21090;-55
2022/03/16 07:08:07;;;;;;;228.55;119.65;;;;;;;2.23;65.54;95041.73;1654213;85;21046;-55
2022/03/16 07:10:35;;;;;;;235.17;124.38;;;;;;;2.17;65.77;95038.63;1651987;84;21081;-57
2022/03/16 07:13:03;;;;;;;237.05;132.00;;;;;;;2.17;65.74;95034.55;1662298;85;21037;-53
2022/03/16 07:15:32;;;;;;;230.57;133.72;;;;;;;2.14;65.87;95041.35;1649426;85;21334;-52
2022/03/16 07:18:04;;;;;;;238.52;132.55;;;;;;;2.12;66.04;95032.83;1709692;82;21053;-56
2022/03/16 07:20:31;;;;;;;220.15;118.93;;;;;;;2.14;66.17;95033.97;1709458;82;21017;-53
2022/03/16 07:23:10;;;;;;;215.30;117.22;;;;;;;2.12;66.01;95030.87;1699870;82;21574;-52
2022/03/16 07:25:40;;;;;;;241.55;132.80;;;;;;;2.14;66.01;95027.78;1697518;82;22193;-50
2022/03/16 07:28:07;;;;;;;226.62;128.30;;;;;;;2.09;66.08;95028.14;1702036;82;21153;-53
2022/03/16 07:30:36;;;;;;;256.13;145.95;;;;;;;2.10;66.24;95031.08;1697185;82;21146;-53
2022/03/16 07:33:05;;;;;;;236.43;136.70;;;;;;;2.11;66.54;95023.14;1696725;82;21053;-52
2022/03/16 07:35:35;;;;;;;235.28;133.75;;;;;;;2.22;66.89;95016.55;1704332;82;21128;-52
2022/03/16 07:38:04;;;;;;;266.35;153.78;;;;;;;2.40;66.66;95015.97;1690110;82;21058;-51
2022/03/16 07:40:35;;;;;;;263.52;151.18;;;;;;;2.54;66.49;95017.89;1707131;82;21620;-52
2022/03/16 07:43:04;;;;;;;276.30;160.03;;;;;;;2.70;66.36;95001.97;1699914;82;21031;-53
2022/03/16 07:45:32;;;;;;;306.90;176.55;;;;;;;2.85;65.91;95007.58;1705249;83;21343;-53
2022/03/16 07:48:02;;;;;;;226.15;129.00;;;;;;;2.92;65.59;95008.91;1695458;83;21669;-54
2022/03/16 07:50:39;;;;;;;178.93;103.75;;;;;;;2.99;65.04;95007.52;1707168;82;21617;-53
2022/03/16 07:53:35;;;;;;;199.47;115.15;;;;;;;3.01;64.03;94999.18;1690350;82;21479;-53
2022/03/16 07:56:07;;;;;;;218.07;124.47;;;;;;;2.98;63.66;94999.97;1701786;82;21521;-52
2022/03/16 07:58:38;;;;;;;215.15;124.58;;;;;;;2.99;63.67;95002.09;1680566;83;21124;-52
2022/03/16 08:01:05;;;;;;;233.23;127.17;;;;;;;3.02;63.56;95008.13;1703149;82;21772;-53
2022/03/16 08:03:33;;;;;;;240.28;136.80;;;;;;;3.03;63.54;95005.59;1684278;82;21041;-53
2022/03/16 08:06:01;;;;;;;227.05;129.63;;;;;;;3.03;63.57;95005.59;1704246;82;21254;-53
2022/03/16 08:08:31;;;;;;;233.63;134.20;;;;;;;3.02;63.85;95016.27;1707219;82;20911;-53
2022/03/16 08:10:59;;;;;;;246.18;142.68;;;;;;;2.96;64.04;95015.10;1697326;81;21482;-54
2022/03/16 08:13:26;;;;;;;218.75;128.27;;;;;;;2.92;64.09;95008.91;1714022;82;21017;-53
2022/03/16 08:15:56;;;;;;;206.38;122.98;;;;;;;2.90;63.89;95016.67;1701115;82;21544;-54
2022/03/16 08:18:23;;;;;;;194.20;116.17;;;;;;;2.89;63.81;95005.62;1709135;82;21481;-53
2022/03/16 08:20:50;;;;;;;180.32;106.60;;;;;;;2.91;63.85;95003.28;1705418;82;21030;-53
2022/03/16 08:23:18;;;;;;;195.82;109.05;;;;;;;2.95;63.62;95004.05;1708255;82;21573;-61
2022/03/16 08:25:47;;;;;;;163.00;92.25;;;;;;;2.90;63.59;94999.02;1702378;82;21085;-53
2022/03/16 08:28:14;;;;;;;169.75;93.12;;;;;;;2.89;63.49;94995.52;1684922;82;21395;-53
2022/03/16 08:30:45;;;;;;;174.93;97.02;;;;;;;2.88;63.39;94997.28;1696673;82;22282;-53
2022/03/16 08:33:12;;;;;;;183.72;101.00;;;;;;;2.89;63.53;94992.03;1673638;83;21019;-53
2022/03/16 08:35:39;;;;;;;182.62;104.58;;;;;;;2.95;63.33;94987.74;1700784;82;20978;-51
2022/03/16 08:38:06;;;;;;;179.38;96.85;;;;;;;2.92;63.27;94983.89;1696882;82;21014;-54
2022/03/16 08:40:34;;;;;;;199.68;107.20;;;;;;;2.91;63.28;94994.53;1712433;82;21051;-55
2022/03/16 08:43:01;;;;;;;189.95;101.95;;;;;;;2.90;63.36;94985.44;1658794;84;21200;-54
2022/03/16 08:45:29;;;;;;;167.00;95.95;;;;;;;2.92;63.36;94973.59;1631954;85;21424;-53
2022/03/16 08:47:58;;;;;;;178.97;98.58;;;;;;;3.01;63.36;94980.73;1666806;83;21613;-53
2022/03/16 08:50:26;;;;;;;188.45;95.17;;;;;;;3.10;63.06;94979.17;1661033;83;21478;-53
2022/03/16 08:52:55;;;;;;;166.28;87.65;;;;;;;3.24;62.81;94978.34;1658183;84;21668;-53
2022/03/16 08:55:23;;;;;;;191.68;99.72;;;;;;;3.36;62.53;94978.67;1651177;85;21180;-54
2022/03/16 08:57:54;;;;;;;214.30;118.67;;;;;;;3.41;62.19;94979.61;1644695;85;20984;-53
2022/03/16 09:00:23;;;;;;;204.53;117.85;;;;;;;3.47;62.53;94970.45;1652023;85;21568;-52
2022/03/16 09:02:50;;;;;;;279.45;155.82;;;;;;;3.64;62.20;94971.14;1661389;84;21090;-51
2022/03/16 09:05:17;;;;;;;298.57;171.65;;;;;;;3.74;62.27;94974.97;1664437;83;22476;-52
2022/03/16 09:07:47;;;;;;;249.88;142.25;;;;;;;3.82;61.74;94969.09;1660256;85;21268;-51
2022/03/16 09:10:14;;;;;;;166.35;97.88;;;;;;;3.87;61.86;94982.27;1660578;83;21105;-52
2022/03/16 09:12:43;;;;;;;159.55;91.30;;;;;;;3.97;61.04;94975.99;1659105;85;21048;-54
2022/03/16 09:15:11;;;;;;;134.87;73.92;;;;;;;4.04;60.13;94972.45;1654805;84;21037;-53
2022/03/16 09:17:38;;;;;;;166.80;91.30;;;;;;;4.00;59.50;94968.95;1661065;84;21131;-53
2022/03/16 09:20:06;;;;;;;167.25;95.70;;;;;;;3.94;59.45;94968.63;1715582;82;22155;-54
2022/03/16 09:22:34;;;;;;;174.60;89.03;;;;;;;3.88;59.58;94966.12;1700055;82;22128;-55
2022/03/16 09:25:01;;;;;;;151.15;82.17;;;;;;;3.89;59.48;94971.00;1699532;82;21088;-54
2022/03/16 09:27:30;;;;;;;118.77;69.07;;;;;;;3.93;59.66;94965.72;1692312;82;21138;-53
2022/03/16 09:29:58;;;;;;;103.22;54.45;;;;;;;3.95;59.53;94968.81;1716058;81;21174;-54
2022/03/16 09:32:27;;;;;;;114.47;59.60;;;;;;;4.01;59.19;94972.66;1702093;82;21161;-51
2022/03/16 09:34:56;;;;;;;94.85;53.35;;;;;;;4.05;58.95;94970.67;1698965;82;21077;-53
2022/03/16 09:37:24;;;;;;;104.90;48.87;;;;;;;4.10;59.02;94968.91;1699744;82;21544;-53
2022/03/16 09:39:53;;;;;;;87.02;45.85;;;;;;;4.14;58.82;94967.50;1692452;82;21218;-52
2022/03/16 09:42:20;;;;;;;99.62;53.87;;;;;;;4.20;58.45;94972.13;1714954;83;21008;-51
2022/03/16 09:44:50;;;;;;;88.35;48.15;;;;;;;4.28;58.19;94968.76;1711257;82;21134;-53
2022/03/16 09:47:18;;;;;;;96.57;55.85;;;;;;;4.30;58.06;94967.77;1709807;82;20979;-53
2022/03/16 09:49:46;;;;;;;101.90;56.02;;;;;;;4.29;57.91;94965.65;1706647;82;21133;-53
2022/03/16 09:52:13;;;;;;;90.05;51.45;;;;;;;4.28;57.88;94967.40;1709193;82;21062;-54
2022/03/16 09:54:41;;;;;;;95.62;53.35;;;;;;;4.25;58.05;94965.48;1707634;83;21003;-53
2022/03/16 09:57:09;;;;;;;124.87;67.85;;;;;;;4.24;58.17;94970.14;1712473;82;21193;-53
2022/03/16 09:59:37;;;;;;;102.58;54.23;;;;;;;4.27;58.34;94966.61;1703752;82;21075;-58
2022/03/16 10:02:12;;;;;;;102.22;54.50;;;;;;;4.31;58.18;94974.19;1694771;81;21041;-53
2022/03/16 10:04:39;;;;;;;105.40;53.98;;;;;;;4.32;58.01;94977.09;1698320;82;21108;-54
2022/03/16 10:07:06;;;;;;;82.80;47.98;;;;;;;4.40;57.89;94973.73;1702279;82;21035;-56
2022/03/16 10:15:19;;;;;;;89.95;46.30;;;;;;;4.58;57.58;94971.02;1704373;82;21055;-55
2022/03/16 10:17:54;;;;;;;82.33;44.90;;;;;;;4.74;57.36;94974.56;1674236;84;21468;-56
2022/03/16 10:20:31;;;;;;;92.57;50.12;;;;;;;4.81;56.81;94969.81;1668592;84;21085;-54
2022/03/16 10:23:17;;;;;;;81.47;47.62;;;;;;;4.83;56.66;94970.18;1675117;83;21641;-53
2022/03/16 10:25:51;;;;;;;78.60;44.27;;;;;;;4.88;56.33;94969.77;1649949;85;21009;-53
2022/03/16 10:28:27;;;;;;;81.92;43.73;;;;;;;4.90;56.18;94968.77;1642185;85;21608;-53
2022/03/16 10:31:05;;;;;;;75.52;44.63;;;;;;;4.98;56.04;94970.83;1704395;81;21426;-54
2022/03/16 10:33:38;;;;;;;84.87;49.73;;;;;;;5.06;55.86;94963.53;1705097;81;20986;-53
2022/03/16 10:36:18;;;;;;;84.25;46.25;;;;;;;5.22;55.52;94966.47;1694882;82;21168;-52
2022/03/16 10:38:51;;;;;;;93.67;49.80;;;;;;;5.35;55.00;94960.07;1711230;81;21083;-52
2022/03/16 10:47:16;;;;;;;134.50;74.07;;;;;;;5.49;54.74;94961.84;1695860;82;21091;-54
2022/03/16 10:49:45;;;;;;;103.05;59.40;;;;;;;5.49;54.83;94962.63;1701499;81;21810;-53
2022/03/16 10:52:18;;;;;;;120.22;64.95;;;;;;;5.47;54.77;94963.63;1709181;82;21317;-53
2022/03/16 10:54:48;;;;;;;121.67;69.20;;;;;;;5.46;54.77;94962.66;1699120;82;21114;-53
2022/03/16 10:57:15;;;;;;;107.85;62.10;;;;;;;5.46;54.65;94951.75;1698198;83;21557;-55
2022/03/16 10:59:49;;;;;;;88.62;48.80;;;;;;;5.52;54.64;94954.20;1702124;81;21555;-53
2022/03/16 11:02:15;;;;;;;70.32;40.85;;;;;;;5.55;54.27;94958.25;1681457;82;21195;-53
2022/03/16 11:04:47;;;;;;;75.30;40.38;;;;;;;5.54;53.93;94949.09;1701081;82;21434;-53
2022/03/16 11:07:16;;;;;;;78.97;43.78;;;;;;;5.53;53.89;94950.28;1722955;81;21094;-53
2022/03/16 11:09:44;;;;;;;91.63;51.98;;;;;;;5.58;53.83;94951.21;1724026;82;21025;-53
2022/03/16 11:15:05;;;;;;;106.92;54.25;;;;;;;5.63;53.69;94946.66;1702288;82;22126;-52
2022/03/16 11:17:32;;;;;;;98.50;49.20;;;;;;;5.67;53.81;94947.37;1693514;83;21089;-52
2022/03/16 11:20:00;;;;;;;79.30;43.50;;;;;;;5.80;53.45;94949.77;1694005;83;21111;-53
2022/03/16 11:22:33;;;;;;;64.65;36.50;;;;;;;5.93;52.73;94944.69;1684672;83;21055;-52
2022/03/16 11:25:10;;;;;;;58.02;34.08;;;;;;;6.10;52.27;94943.66;1686217;84;21142;-53
2022/03/16 11:27:50;;;;;;;69.25;39.65;;;;;;;6.21;51.74;94944.27;1695389;83;21869;-52
2022/03/16 11:30:26;;;;;;;67.60;39.03;;;;;;;6.22;51.92;94946.39;1691951;84;21049;-55
2022/03/16 11:33:04;;;;;;;70.80;41.00;;;;;;;6.33;51.81;94939.57;1695832;84;21052;-52